Time;durP1;ratioP1;P1;durP2;ratioP2;P2;SDS_P1;SDS_P2;PMS_P1;PMS_P2;Temp;Humidity;BMP_temperature;BMP_pressure;BME280_temperature;BME280_humidity;BME280_pressure;Samples;Min_cycle;Max_cycle;Signal;HPM_P1;HPM_P2
2022/06/20 00:00:24;;;;;;;4.57;3.20;;;18.00;99.90;;;;;;5089449;28;20261;-51
2022/06/20 00:02:54;;;;;;;6.32;3.75;;;17.90;99.90;;;;;;5089365;28;20204;-51
2022/06/20 00:05:25;;;;;;;3.83;3.00;;;17.90;99.90;;;;;;5089339;28;20258;-51
2022/06/20 00:07:53;;;;;;;5.15;3.08;;;17.90;99.90;;;;;;5089306;28;20228;-51
2022/06/20 00:10:26;;;;;;;5.53;3.40;;;17.90;99.90;;;;;;5089397;28;20208;-51
2022/06/20 00:12:54;;;;;;;4.63;3.13;;;17.80;99.90;;;;;;5089278;28;20656;-51
2022/06/20 00:15:26;;;;;;;6.15;3.28;;;17.80;99.90;;;;;;5088335;28;20224;-50
2022/06/20 00:17:56;;;;;;;6.65;3.35;;;17.70;99.90;;;;;;5089400;28;20268;-51
2022/06/20 00:20:25;;;;;;;5.22;3.58;;;17.70;99.90;;;;;;5088395;28;20624;-51
2022/06/20 00:22:54;;;;;;;8.60;3.70;;;17.70;99.90;;;;;;5088401;28;20204;-50
2022/06/20 00:25:25;;;;;;;5.70;3.30;;;17.60;99.90;;;;;;5089541;28;20208;-51
2022/06/20 00:27:54;;;;;;;6.00;4.10;;;17.60;99.90;;;;;;5088930;28;20374;-51
2022/06/20 00:30:23;;;;;;;7.20;3.92;;;17.60;99.90;;;;;;5089390;28;20247;-50
2022/06/20 00:32:52;;;;;;;5.65;3.78;;;17.50;99.90;;;;;;5087790;28;20257;-51
2022/06/20 00:35:20;;;;;;;8.52;4.05;;;17.50;99.90;;;;;;5089409;28;20260;-51
2022/06/20 00:37:49;;;;;;;7.82;3.67;;;17.50;99.90;;;;;;5088407;28;20228;-51
2022/06/20 00:40:26;;;;;;;5.20;4.00;;;17.50;99.90;;;;;;5095668;28;20285;-51
2022/06/20 00:42:55;;;;;;;4.72;3.33;;;17.40;99.90;;;;;;5086847;28;20264;-50
2022/06/20 00:45:25;;;;;;;6.22;3.45;;;17.40;99.90;;;;;;5109282;28;20672;-51
2022/06/20 00:48:01;;;;;;;7.35;3.90;;;17.30;99.90;;;;;;5108347;28;20265;-51
2022/06/20 00:50:31;;;;;;;6.97;4.07;;;17.20;99.90;;;;;;5109448;28;20230;-49
2022/06/20 00:53:05;;;;;;;5.07;3.22;;;17.10;99.90;;;;;;5109196;28;20312;-51
2022/06/20 00:55:38;;;;;;;6.20;3.72;;;17.10;99.90;;;;;;5104936;28;20259;-50
2022/06/20 00:58:11;;;;;;;5.57;3.47;;;17.10;99.90;;;;;;5109105;28;20262;-51
2022/06/20 01:00:41;;;;;;;5.43;3.55;;;17.10;99.90;;;;;;5107705;28;20196;-51
2022/06/20 01:03:13;;;;;;;6.90;4.05;;;17.00;99.90;;;;;;5109949;28;20222;-50
2022/06/20 01:05:48;;;;;;;4.85;3.63;;;17.00;99.90;;;;;;5112626;28;20231;-50
2022/06/20 01:08:20;;;;;;;5.07;3.40;;;16.90;99.90;;;;;;5112441;28;20238;-50
2022/06/20 01:10:53;;;;;;;4.50;3.60;;;17.00;99.90;;;;;;5112705;28;20273;-51
2022/06/20 01:13:24;;;;;;;5.93;3.67;;;16.90;99.90;;;;;;5112301;28;20845;-50
2022/06/20 01:15:54;;;;;;;8.88;4.13;;;16.90;99.90;;;;;;5112937;28;20212;-51
2022/06/20 01:18:26;;;;;;;5.15;3.22;;;16.80;99.90;;;;;;5105228;28;20292;-51
2022/06/20 01:20:57;;;;;;;5.57;3.90;;;16.80;99.90;;;;;;5112988;28;20276;-51
2022/06/20 01:23:39;;;;;;;7.35;4.05;;;16.80;99.90;;;;;;5097859;28;20203;-51
2022/06/20 01:26:23;;;;;;;5.63;3.80;;;16.80;99.90;;;;;;5112630;28;20235;-50
2022/06/20 01:28:56;;;;;;;5.50;3.95;;;16.80;99.90;;;;;;5112288;28;20299;-51
2022/06/20 01:31:26;;;;;;;7.38;4.00;;;16.80;99.90;;;;;;5100004;28;20659;-50
2022/06/20 01:33:54;;;;;;;5.40;4.05;;;16.80;99.90;;;;;;5111178;28;20210;-50
2022/06/20 01:39:09;;;;;;;3.88;3.30;;;16.80;99.90;;;;;;5111507;28;20231;-50
2022/06/20 01:44:25;;;;;;;5.70;3.45;;;16.80;99.90;;;;;;5102791;28;20241;-50
2022/06/20 01:46:53;;;;;;;5.40;3.58;;;16.80;99.90;;;;;;5111021;28;20806;-51
2022/06/20 01:49:24;;;;;;;5.07;3.38;;;16.90;99.90;;;;;;5101073;28;20261;-50
2022/06/20 01:51:55;;;;;;;4.72;3.10;;;16.80;99.90;;;;;;5110812;28;20235;-50
2022/06/20 01:54:27;;;;;;;5.18;3.38;;;16.90;99.90;;;;;;5112434;28;20242;-51
2022/06/20 01:56:55;;;;;;;6.07;3.20;;;16.90;99.90;;;;;;5111414;28;20759;-50
2022/06/20 01:59:31;;;;;;;6.15;3.40;;;16.90;99.90;;;;;;5111966;28;20624;-51
2022/06/20 02:01:59;;;;;;;3.75;3.30;;;16.80;99.90;;;;;;5111126;28;20246;-51
2022/06/20 02:04:31;;;;;;;8.77;4.05;;;16.80;99.90;;;;;;5111922;28;20239;-51
2022/06/20 02:07:02;;;;;;;4.78;4.15;;;16.80;99.90;;;;;;5111542;28;20276;-51
2022/06/20 02:09:30;;;;;;;8.15;5.10;;;16.80;99.90;;;;;;5112084;28;20737;-50
2022/06/20 02:12:00;;;;;;;10.18;4.68;;;16.70;99.90;;;;;;5111716;28;20235;-51
2022/06/20 02:14:35;;;;;;;9.85;7.13;;;16.80;99.90;;;;;;5110822;28;20286;-51
2022/06/20 02:17:11;;;;;;;18.00;8.98;;;16.50;99.90;;;;;;5107975;28;20219;-51
2022/06/20 02:19:45;;;;;;;24.00;9.20;;;16.30;99.90;;;;;;5103972;28;20211;-50
2022/06/20 02:22:14;;;;;;;18.67;8.32;;;16.10;99.90;;;;;;5107751;28;20268;-50
2022/06/20 02:24:46;;;;;;;14.32;7.22;;;16.10;99.90;;;;;;5111390;28;20254;-50
2022/06/20 02:27:23;;;;;;;10.18;5.78;;;16.30;99.90;;;;;;5111141;28;20231;-51
2022/06/20 02:29:54;;;;;;;12.77;7.15;;;16.30;99.90;;;;;;5110338;28;20238;-51
2022/06/20 02:32:25;;;;;;;8.07;5.47;;;16.20;99.90;;;;;;5110158;28;20204;-50
2022/06/20 02:34:54;;;;;;;9.57;5.70;;;16.30;99.90;;;;;;5111169;28;20196;-50
2022/06/20 02:37:25;;;;;;;10.32;6.18;;;16.20;99.90;;;;;;5106347;28;20273;-50
2022/06/20 02:39:57;;;;;;;9.95;5.55;;;16.30;99.90;;;;;;5102351;28;20196;-50
2022/06/20 02:42:30;;;;;;;10.43;6.07;;;16.30;99.90;;;;;;5110612;28;20208;-50
2022/06/20 02:45:01;;;;;;;10.18;6.35;;;16.30;99.90;;;;;;5111726;28;20226;-51
2022/06/20 02:47:30;;;;;;;10.18;6.07;;;16.20;99.90;;;;;;5104411;28;20270;-51
2022/06/20 02:50:02;;;;;;;8.27;5.93;;;16.10;99.90;;;;;;5104857;28;20243;-50
2022/06/20 02:52:34;;;;;;;9.20;5.70;;;16.20;99.90;;;;;;5103614;28;20656;-50
2022/06/20 02:55:04;;;;;;;9.68;5.50;;;16.10;99.90;;;;;;5104722;28;20249;-50
2022/06/20 02:57:36;;;;;;;11.25;5.95;;;16.10;99.90;;;;;;5082048;28;20738;-51
2022/06/20 03:00:13;;;;;;;11.45;6.88;;;16.00;99.90;;;;;;5111385;28;20688;-50
2022/06/20 03:02:42;;;;;;;10.77;6.50;;;15.80;99.90;;;;;;5113231;28;20200;-50
2022/06/20 03:05:12;;;;;;;7.55;5.82;;;15.60;99.90;;;;;;5113450;28;20200;-50
2022/06/20 03:07:43;;;;;;;10.10;5.00;;;15.60;99.90;;;;;;5101734;28;20216;-51
2022/06/20 03:10:20;;;;;;;7.72;5.60;;;15.50;99.90;;;;;;5110720;28;20238;-51
2022/06/20 03:12:49;;;;;;;7.32;5.85;;;15.60;99.90;;;;;;5110473;28;20199;-51
2022/06/20 03:15:18;;;;;;;6.93;5.28;;;15.60;99.90;;;;;;5110511;28;20252;-51
2022/06/20 03:17:49;;;;;;;7.40;5.00;;;15.80;99.90;;;;;;5110247;28;20684;-51
2022/06/20 03:20:20;;;;;;;8.45;4.60;;;15.90;99.90;;;;;;5110523;28;20244;-50
2022/06/20 03:22:54;;;;;;;10.50;5.03;;;15.90;99.90;;;;;;5099834;28;20253;-51
2022/06/20 03:25:23;;;;;;;6.05;4.47;;;15.90;99.90;;;;;;5110577;28;20231;-51
2022/06/20 03:27:52;;;;;;;5.95;4.38;;;16.00;99.90;;;;;;5110127;28;20220;-51
2022/06/20 03:30:40;;;;;;;5.47;4.47;;;16.00;99.90;;;;;;5110224;28;20206;-51
2022/06/20 03:33:13;;;;;;;7.72;5.03;;;16.00;99.90;;;;;;5110085;28;20280;-51
2022/06/20 03:35:47;;;;;;;5.03;4.18;;;16.00;99.90;;;;;;5111001;28;20203;-51
2022/06/20 03:38:16;;;;;;;6.35;4.40;;;16.00;99.90;;;;;;5109889;28;20232;-51
2022/06/20 03:40:44;;;;;;;6.88;4.85;;;16.10;99.90;;;;;;5099500;28;20561;-51
2022/06/20 03:43:18;;;;;;;6.28;4.65;;;16.00;99.90;;;;;;5108320;28;20628;-51
2022/06/20 03:45:51;;;;;;;6.38;4.50;;;16.00;99.90;;;;;;5111296;28;20203;-50
2022/06/20 03:48:22;;;;;;;8.20;5.28;;;15.90;99.90;;;;;;5096980;28;20267;-51
2022/06/20 03:50:55;;;;;;;8.00;4.32;;;15.90;99.90;;;;;;5110229;28;20729;-50
2022/06/20 03:53:28;;;;;;;6.57;4.20;;;15.90;99.90;;;;;;5095764;28;20254;-50
2022/06/20 03:56:22;;;;;;;6.78;4.75;;;16.00;99.90;;;;;;5089462;28;20228;-51
2022/06/20 03:58:57;;;;;;;10.20;4.30;;;15.90;99.90;;;;;;5109681;28;20255;-50
2022/06/20 04:01:30;;;;;;;4.20;3.53;;;16.00;99.90;;;;;;5103690;28;20207;-51
2022/06/20 04:04:04;;;;;;;8.00;3.65;;;16.00;99.90;;;;;;5092184;28;20295;-50
2022/06/20 04:06:39;;;;;;;5.55;3.30;;;16.10;99.90;;;;;;5105909;28;20199;-51
2022/06/20 04:12:05;;;;;;;5.68;3.45;;;16.10;99.90;;;;;;5110005;28;20208;-51
2022/06/20 04:14:39;;;;;;;5.07;3.28;;;16.00;99.90;;;;;;5110125;28;20211;-51
2022/06/20 04:20:08;;;;;;;5.10;3.60;;;16.00;99.90;;;;;;5110097;28;20233;-50
2022/06/20 04:22:40;;;;;;;4.78;3.38;;;16.00;99.90;;;;;;5099288;28;20640;-50
2022/06/20 04:25:25;;;;;;;5.70;3.67;;;15.90;99.90;;;;;;5109759;28;20256;-50
2022/06/20 04:27:59;;;;;;;4.38;3.53;;;15.90;99.90;;;;;;5109070;28;20219;-50
2022/06/20 04:30:34;;;;;;;4.43;3.70;;;15.80;99.90;;;;;;5109456;28;20239;-50
2022/06/20 04:33:08;;;;;;;4.70;3.35;;;15.90;99.90;;;;;;5109145;28;20231;-51
2022/06/20 04:35:40;;;;;;;5.45;3.42;;;15.90;99.90;;;;;;5109420;28;20687;-51
2022/06/20 04:38:15;;;;;;;8.50;4.60;;;15.90;99.90;;;;;;5097329;28;20708;-50
2022/06/20 04:40:49;;;;;;;6.70;4.80;;;15.80;99.90;;;;;;5104830;28;20199;-51
2022/06/20 04:43:22;;;;;;;6.35;5.38;;;15.80;99.90;;;;;;5113243;28;20195;-51
2022/06/20 04:46:00;;;;;;;7.90;5.78;;;15.70;99.90;;;;;;5112306;28;20257;-50
2022/06/20 04:48:29;;;;;;;6.35;5.22;;;15.60;99.90;;;;;;5099906;28;20247;-51
2022/06/20 04:51:01;;;;;;;5.95;5.35;;;15.60;99.90;;;;;;5113444;28;20215;-51
2022/06/20 04:53:33;;;;;;;64.13;36.50;;;15.60;99.90;;;;;;5112765;28;20231;-51
2022/06/20 04:56:06;;;;;;;47.17;27.90;;;15.70;99.90;;;;;;5113036;28;20200;-51
2022/06/20 04:58:38;;;;;;;60.13;31.30;;;15.70;99.90;;;;;;5113121;28;20231;-51
2022/06/20 05:01:08;;;;;;;450.92;252.48;;;15.70;99.90;;;;;;5112829;28;20266;-49
2022/06/20 05:03:43;;;;;;;1122.22;678.25;;;15.80;99.90;;;;;;5112835;28;20208;-51
2022/06/20 05:06:15;;;;;;;16.77;11.63;;;15.90;99.90;;;;;;5085695;28;20234;-50
2022/06/20 05:08:50;;;;;;;5.68;5.18;;;15.90;99.90;;;;;;5105950;28;20254;-51
2022/06/20 05:11:22;;;;;;;5.70;5.10;;;15.90;99.90;;;;;;5112500;28;20235;-50
2022/06/20 05:13:56;;;;;;;5.45;4.57;;;15.90;99.90;;;;;;5112504;28;20218;-55
2022/06/20 05:16:28;;;;;;;7.00;5.00;;;15.80;99.90;;;;;;5112583;28;20257;-51
2022/06/20 05:19:03;;;;;;;5.28;4.88;;;15.80;99.90;;;;;;5088750;28;20232;-50
2022/06/20 05:21:36;;;;;;;6.07;5.47;;;15.80;99.90;;;;;;5105725;28;20265;-50
2022/06/20 05:24:10;;;;;;;9.80;5.75;;;15.80;99.90;;;;;;5105924;28;20253;-51
2022/06/20 05:26:41;;;;;;;5.20;4.68;;;16.00;99.90;;;;;;5111902;28;20204;-51
2022/06/20 05:29:15;;;;;;;4.78;4.35;;;16.00;99.90;;;;;;5111385;28;20720;-50
2022/06/20 05:31:53;;;;;;;6.30;4.85;;;16.10;99.90;;;;;;5112053;28;20211;-51
2022/06/20 05:34:27;;;;;;;6.10;5.22;;;16.10;99.90;;;;;;5111691;28;20235;-50
2022/06/20 05:37:03;;;;;;;5.50;4.80;;;16.00;99.90;;;;;;5111711;28;20212;-50
2022/06/20 05:39:38;;;;;;;5.32;4.25;;;16.00;99.90;;;;;;5111067;28;20215;-51
2022/06/20 05:42:09;;;;;;;4.75;4.07;;;16.10;99.90;;;;;;5111818;28;20822;-50
2022/06/20 05:44:37;;;;;;;4.63;3.97;;;16.20;99.90;;;;;;5107192;28;20235;-51
2022/06/20 05:47:09;;;;;;;4.43;4.00;;;16.40;99.90;;;;;;5108614;28;20599;-50
2022/06/20 05:49:46;;;;;;;5.70;4.70;;;16.40;99.90;;;;;;5102306;28;20207;-50
2022/06/20 05:52:19;;;;;;;3.90;3.55;;;16.40;99.90;;;;;;5111617;28;20200;-50
2022/06/20 05:54:53;;;;;;;6.43;3.88;;;16.30;99.90;;;;;;5111905;28;20261;-51
2022/06/20 05:57:24;;;;;;;3.67;3.08;;;16.30;99.90;;;;;;5111017;28;20260;-50
2022/06/20 05:59:58;;;;;;;4.35;3.13;;;16.30;99.90;;;;;;5111703;28;20207;-51
2022/06/20 06:02:30;;;;;;;5.10;3.35;;;16.30;99.90;;;;;;5096790;28;20245;-50
2022/06/20 06:05:11;;;;;;;3.20;3.00;;;16.30;99.90;;;;;;5112118;28;20256;-50
2022/06/20 06:07:45;;;;;;;3.35;2.88;;;16.40;99.90;;;;;;5102868;28;20246;-51
2022/06/20 06:10:29;;;;;;;3.80;3.17;;;16.50;99.90;;;;;;5111955;28;20249;-50
2022/06/20 06:13:05;;;;;;;3.08;2.88;;;16.50;99.90;;;;;;5111350;28;20266;-50
2022/06/20 06:15:39;;;;;;;2.90;2.42;;;16.60;99.90;;;;;;5111227;28;20211;-51
2022/06/20 06:18:14;;;;;;;7.88;7.10;;;16.60;99.90;;;;;;5111355;28;20774;-50
2022/06/20 06:20:47;;;;;;;28.20;25.42;;;16.60;99.90;;;;;;5111024;28;20246;-50
2022/06/20 06:23:16;;;;;;;2.92;2.70;;;16.60;99.90;;;;;;5092668;28;20734;-50
2022/06/20 06:25:45;;;;;;;2.53;2.33;;;16.60;99.90;;;;;;5105139;28;20253;-49
2022/06/20 06:28:17;;;;;;;2.75;2.22;;;16.50;99.90;;;;;;5108427;28;20254;-49
2022/06/20 06:30:50;;;;;;;3.20;2.13;;;16.50;99.90;;;;;;5104235;28;20268;-49
2022/06/20 06:33:23;;;;;;;2.08;1.95;;;16.50;99.90;;;;;;5097684;28;20199;-50
2022/06/20 06:36:01;;;;;;;2.45;2.25;;;16.50;99.90;;;;;;5098441;28;20203;-50
2022/06/20 06:38:34;;;;;;;2.40;2.20;;;16.50;99.90;;;;;;5111200;28;20219;-50
2022/06/20 06:41:07;;;;;;;2.72;2.30;;;16.50;99.90;;;;;;5111412;28;20285;-50
2022/06/20 06:43:38;;;;;;;2.80;2.60;;;16.40;99.90;;;;;;5111153;28;20246;-51
2022/06/20 06:46:12;;;;;;;3.30;2.80;;;16.40;99.90;;;;;;5110979;28;20199;-51
2022/06/20 06:48:45;;;;;;;3.33;2.70;;;16.40;99.90;;;;;;5098201;28;20268;-51
2022/06/20 06:51:20;;;;;;;2.92;2.63;;;16.40;99.90;;;;;;5111330;28;20231;-50
2022/06/20 06:53:53;;;;;;;2.60;2.40;;;16.40;99.90;;;;;;5110735;28;20199;-50
2022/06/20 06:56:27;;;;;;;3.00;2.70;;;16.40;99.90;;;;;;5111568;28;20212;-50
2022/06/20 06:59:00;;;;;;;3.20;2.55;;;16.40;99.90;;;;;;5110940;28;20688;-51
2022/06/20 07:01:33;;;;;;;2.60;2.30;;;16.40;99.90;;;;;;5110720;28;20211;-51
2022/06/20 07:04:05;;;;;;;3.28;2.00;;;16.30;99.90;;;;;;5111080;28;20867;-51
2022/06/20 07:06:41;;;;;;;2.53;2.33;;;16.30;99.90;;;;;;5110373;28;20208;-51
2022/06/20 07:09:16;;;;;;;2.58;2.08;;;16.20;99.90;;;;;;5111056;28;20215;-51
2022/06/20 07:11:49;;;;;;;2.30;2.10;;;16.30;99.90;;;;;;5110712;28;20333;-51
2022/06/20 07:14:22;;;;;;;2.00;1.90;;;16.30;99.90;;;;;;5093138;28;20208;-53
2022/06/20 07:17:02;;;;;;;1.60;1.50;;;16.30;99.90;;;;;;5090003;28;20310;-53
2022/06/20 07:19:30;;;;;;;2.42;2.00;;;16.30;99.90;;;;;;5085227;28;20240;-50
2022/06/20 07:22:00;;;;;;;2.15;2.00;;;16.30;99.90;;;;;;5091857;28;20240;-50
2022/06/20 07:24:30;;;;;;;2.10;1.90;;;16.20;99.90;;;;;;5096767;28;20629;-50
2022/06/20 07:27:06;;;;;;;1.60;1.50;;;16.10;99.90;;;;;;5096815;28;20261;-50
2022/06/20 07:29:45;;;;;;;2.10;1.85;;;16.10;99.90;;;;;;5108799;28;20244;-50
2022/06/20 07:32:19;;;;;;;1.35;1.25;;;16.20;99.90;;;;;;5110021;28;20247;-50
2022/06/20 07:34:51;;;;;;;1.33;1.23;;;16.10;99.90;;;;;;5110157;28;20290;-52
2022/06/20 07:37:25;;;;;;;1.45;1.33;;;16.10;99.90;;;;;;5102094;28;20270;-53
2022/06/20 07:39:59;;;;;;;0.90;0.90;;;16.10;99.90;;;;;;5104445;28;20211;-53
2022/06/20 07:42:34;;;;;;;0.80;0.80;;;16.10;99.90;;;;;;5109915;28;20247;-53
2022/06/20 07:45:10;;;;;;;2.65;0.98;;;16.10;99.90;;;;;;5105201;28;20199;-53
2022/06/20 07:47:42;;;;;;;1.65;0.75;;;16.20;99.90;;;;;;5091008;28;20276;-52
2022/06/20 07:50:15;;;;;;;1.38;0.80;;;16.20;99.90;;;;;;5105454;28;20199;-53
2022/06/20 07:52:49;;;;;;;0.85;0.85;;;16.20;99.90;;;;;;5108831;28;20672;-52
2022/06/20 07:55:21;;;;;;;0.65;0.60;;;16.10;99.90;;;;;;5109767;28;20242;-52
2022/06/20 07:57:54;;;;;;;0.63;0.63;;;16.10;99.90;;;;;;5109052;28;20257;-52
2022/06/20 08:00:25;;;;;;;0.50;0.50;;;16.10;99.90;;;;;;5109970;28;20219;-53
2022/06/20 08:02:58;;;;;;;1.50;1.40;;;16.10;99.90;;;;;;5108833;28;20212;-52
2022/06/20 08:05:30;;;;;;;2.20;1.02;;;16.00;99.90;;;;;;5103234;28;20222;-53
2022/06/20 08:08:05;;;;;;;2.20;0.95;;;16.00;99.90;;;;;;5092254;28;20273;-52
2022/06/20 08:10:36;;;;;;;0.68;0.68;;;16.00;99.90;;;;;;5101341;28;20664;-52
2022/06/20 08:13:10;;;;;;;1.10;0.90;;;16.00;99.90;;;;;;5110484;28;20570;-53
2022/06/20 08:15:45;;;;;;;1.60;1.10;;;16.00;99.90;;;;;;5114409;28;20238;-52
2022/06/20 08:18:13;;;;;;;1.33;1.23;;;16.00;99.90;;;;;;5110174;28;20273;-53
2022/06/20 08:20:47;;;;;;;0.80;0.80;;;15.90;99.90;;;;;;5105698;28;20260;-53
2022/06/20 08:23:24;;;;;;;1.48;1.30;;;15.90;99.90;;;;;;5100402;28;20620;-53
2022/06/20 08:25:56;;;;;;;1.40;1.30;;;15.90;99.90;;;;;;5113716;28;20547;-52
2022/06/20 08:28:35;;;;;;;2.13;1.30;;;15.90;99.90;;;;;;5114143;28;20223;-52
2022/06/20 08:34:46;;;;;;;2.50;1.73;;;15.70;99.90;;;;;;5065665;28;20219;-53
2022/06/20 08:37:19;;;;;;;2.10;1.85;;;15.80;99.90;;;;;;5109373;28;20740;-52
2022/06/20 08:39:56;;;;;;;2.85;2.00;;;15.60;99.90;;;;;;5107900;28;20259;-52
2022/06/20 08:42:58;;;;;;;3.55;2.05;;;15.60;99.90;;;;;;5112893;28;20687;-51
2022/06/20 08:45:56;;;;;;;2.40;2.10;;;15.50;99.90;;;;;;5113557;28;20298;-53
2022/06/20 08:49:02;;;;;;;3.35;2.08;;;15.30;99.90;;;;;;5098117;28;20281;-52
2022/06/20 08:52:14;;;;;;;2.92;2.30;;;15.40;99.90;;;;;;5113790;28;20238;-53
2022/06/20 08:55:03;;;;;;;2.83;2.58;;;15.40;99.90;;;;;;5093896;28;20238;-52
2022/06/20 08:57:42;;;;;;;3.00;2.70;;;15.30;99.90;;;;;;5106661;28;20274;-52
2022/06/20 09:00:39;;;;;;;2.90;2.70;;;15.40;99.90;;;;;;5109564;28;20227;-52
2022/06/20 09:03:36;;;;;;;3.78;2.92;;;15.40;99.90;;;;;;5112475;28;20238;-52
2022/06/20 09:06:37;;;;;;;3.17;2.88;;;15.40;99.90;;;;;;5101168;28;20683;-52
2022/06/20 09:09:36;;;;;;;2.90;2.70;;;15.30;99.90;;;;;;5110444;28;20223;-52
2022/06/20 09:12:24;;;;;;;2.85;2.60;;;15.40;99.90;;;;;;5113008;28;20933;-52
2022/06/20 09:15:19;;;;;;;2.75;2.33;;;15.40;99.90;;;;;;5090322;28;20235;-52
2022/06/20 09:17:58;;;;;;;3.28;2.97;;;15.40;99.90;;;;;;5101656;28;20777;-52
2022/06/20 09:20:34;;;;;;;3.30;3.00;;;15.40;99.90;;;;;;5104764;28;20212;-53
2022/06/20 09:23:19;;;;;;;3.00;2.80;;;15.40;99.90;;;;;;5097916;28;20694;-53
2022/06/20 09:25:56;;;;;;;4.22;2.90;;;15.40;99.90;;;;;;5112749;28;20211;-52
2022/06/20 09:28:55;;;;;;;3.80;3.47;;;15.40;99.90;;;;;;5112420;28;20325;-52
2022/06/20 09:31:58;;;;;;;4.47;3.60;;;15.40;99.90;;;;;;5112628;28;20562;-53
2022/06/20 09:35:04;;;;;;;5.47;4.50;;;15.30;99.90;;;;;;5111932;28;20834;-53
2022/06/20 09:38:02;;;;;;;11.50;6.75;;;15.40;99.90;;;;;;5112243;28;20227;-52
2022/06/20 09:40:38;;;;;;;4.13;3.67;;;15.30;99.90;;;;;;5111892;28;20231;-53
2022/06/20 09:43:21;;;;;;;5.60;3.03;;;15.20;99.90;;;;;;5106515;28;20264;-52
2022/06/20 09:45:58;;;;;;;2.85;2.65;;;15.10;99.90;;;;;;5111697;28;20583;-53
2022/06/20 09:48:35;;;;;;;4.40;3.20;;;15.10;99.90;;;;;;5099055;28;20224;-52
2022/06/20 09:51:09;;;;;;;3.67;3.17;;;15.10;99.90;;;;;;5112117;28;20249;-52
2022/06/20 09:53:55;;;;;;;2.80;2.50;;;15.00;99.90;;;;;;5111801;28;20206;-52
2022/06/20 09:56:30;;;;;;;6.28;2.58;;;15.10;99.90;;;;;;5101443;28;20199;-52
2022/06/20 09:59:09;;;;;;;3.45;2.80;;;14.90;99.90;;;;;;5114498;28;20222;-52
2022/06/20 10:01:44;;;;;;;4.85;3.20;;;14.90;99.90;;;;;;5113096;28;20216;-52
2022/06/20 10:04:25;;;;;;;2.97;2.67;;;15.10;99.90;;;;;;5087743;28;20214;-52
2022/06/20 10:07:21;;;;;;;4.75;2.38;;;15.10;99.90;;;;;;5097867;28;20200;-53
2022/06/20 10:09:56;;;;;;;5.07;2.20;;;15.00;99.90;;;;;;5111967;28;20373;-53
2022/06/20 10:12:32;;;;;;;4.25;2.30;;;15.00;99.90;;;;;;5112110;28;20664;-52
2022/06/20 10:15:09;;;;;;;4.38;2.17;;;15.00;99.90;;;;;;5111809;28;20972;-52
2022/06/20 10:17:48;;;;;;;2.30;2.10;;;14.90;99.90;;;;;;5085295;28;20313;-52
2022/06/20 10:20:27;;;;;;;3.38;2.13;;;14.90;99.90;;;;;;5111395;28;20223;-53
2022/06/20 10:23:03;;;;;;;5.18;2.30;;;14.90;99.90;;;;;;5101663;28;20639;-53
2022/06/20 10:26:05;;;;;;;4.15;2.40;;;14.80;99.90;;;;;;5111873;28;20208;-53
2022/06/20 10:28:42;;;;;;;3.15;2.30;;;14.90;99.90;;;;;;5091952;28;20276;-53
2022/06/20 10:31:25;;;;;;;3.15;2.00;;;14.90;99.90;;;;;;5111078;28;20191;-52
2022/06/20 10:34:04;;;;;;;3.45;2.17;;;15.10;99.90;;;;;;5110523;28;20950;-52
2022/06/20 10:36:46;;;;;;;2.60;1.90;;;15.30;99.90;;;;;;5095256;28;20203;-53
2022/06/20 10:39:24;;;;;;;3.15;2.03;;;15.30;99.90;;;;;;5110908;28;20639;-53
2022/06/20 10:41:59;;;;;;;3.22;2.15;;;15.30;99.90;;;;;;5110887;28;20204;-52
2022/06/20 10:44:46;;;;;;;4.78;2.60;;;15.30;99.90;;;;;;5110900;28;20211;-53
2022/06/20 10:47:20;;;;;;;3.78;2.05;;;15.40;99.90;;;;;;5106452;28;20676;-53
2022/06/20 10:50:06;;;;;;;3.45;2.20;;;15.40;99.90;;;;;;5103246;28;20203;-52
2022/06/20 10:52:48;;;;;;;2.85;2.00;;;15.40;99.90;;;;;;5084058;28;20231;-53
2022/06/20 10:55:28;;;;;;;2.15;1.90;;;15.40;99.90;;;;;;5110643;28;20555;-53
2022/06/20 10:58:07;;;;;;;5.70;2.67;;;15.40;99.90;;;;;;5110895;28;20234;-53
2022/06/20 11:00:39;;;;;;;3.60;2.65;;;15.40;99.90;;;;;;5110372;28;20742;-53
2022/06/20 11:03:42;;;;;;;3.78;2.60;;;15.50;99.90;;;;;;5110454;28;20199;-53
2022/06/20 11:06:22;;;;;;;5.78;3.00;;;15.70;99.90;;;;;;5102475;28;20217;-53
2022/06/20 11:09:01;;;;;;;4.68;2.80;;;15.90;99.90;;;;;;5092345;28;20269;-52
2022/06/20 11:11:42;;;;;;;4.70;2.90;;;16.00;99.90;;;;;;5095513;28;20228;-52
2022/06/20 11:14:16;;;;;;;5.65;2.72;;;16.10;99.90;;;;;;5094408;28;20695;-53
2022/06/20 11:16:50;;;;;;;3.72;2.65;;;16.20;99.90;;;;;;5095259;28;20242;-53
2022/06/20 11:19:29;;;;;;;5.45;2.60;;;16.20;99.90;;;;;;5110677;28;20235;-53
2022/06/20 11:22:14;;;;;;;4.20;2.53;;;16.10;99.90;;;;;;5096682;28;20220;-52
2022/06/20 11:24:53;;;;;;;3.25;2.30;;;16.10;99.90;;;;;;5106603;28;20792;-53
2022/06/20 11:27:38;;;;;;;3.67;2.55;;;16.00;99.90;;;;;;5110313;28;20604;-53
2022/06/20 11:30:13;;;;;;;4.88;2.58;;;16.10;99.90;;;;;;5110193;28;20626;-53
2022/06/20 11:33:01;;;;;;;5.40;2.63;;;16.10;99.90;;;;;;5109333;28;20207;-52
2022/06/20 11:35:40;;;;;;;5.25;2.10;;;16.10;99.90;;;;;;5110586;28;20211;-53
2022/06/20 11:38:28;;;;;;;4.35;1.88;;;16.20;99.90;;;;;;5109547;28;20306;-53
2022/06/20 11:41:01;;;;;;;4.88;2.00;;;16.30;99.90;;;;;;5110642;28;20618;-52
2022/06/20 11:43:54;;;;;;;6.30;2.38;;;16.60;99.90;;;;;;5109353;28;20235;-52
2022/06/20 11:46:35;;;;;;;3.80;2.30;;;16.90;99.90;;;;;;5110345;28;20252;-53
2022/06/20 11:49:17;;;;;;;5.00;2.40;;;17.00;99.90;;;;;;5088083;28;20304;-53
2022/06/20 11:51:54;;;;;;;5.43;2.28;;;17.20;99.90;;;;;;5103417;28;20264;-53
2022/06/20 11:54:34;;;;;;;2.80;2.00;;;17.20;99.90;;;;;;5097940;28;20268;-53
2022/06/20 11:57:12;;;;;;;7.03;2.60;;;17.30;99.90;;;;;;5110090;28;20203;-53
2022/06/20 11:59:47;;;;;;;3.20;2.15;;;17.40;99.90;;;;;;5109979;28;20229;-52
2022/06/20 12:02:37;;;;;;;6.82;2.65;;;17.50;99.90;;;;;;5079714;28;20292;-53
2022/06/20 12:05:28;;;;;;;6.28;3.00;;;17.30;99.90;;;;;;5087881;28;20215;-53
2022/06/20 12:08:04;;;;;;;8.52;2.80;;;17.00;99.90;;;;;;5088179;28;20289;-53
2022/06/20 12:10:40;;;;;;;7.07;2.40;;;17.00;99.90;;;;;;5088576;28;20239;-53
2022/06/20 12:13:21;;;;;;;5.47;2.28;;;17.10;99.90;;;;;;5090961;28;20212;-53
2022/06/20 12:15:58;;;;;;;8.20;2.70;;;17.30;99.90;;;;;;5109185;28;20243;-50
2022/06/20 12:24:22;;;;;;;5.95;2.70;;;17.60;99.90;;;;;;5104197;28;20253;-53
2022/06/20 12:26:53;;;;;;;5.88;2.90;;;17.70;99.90;;;;;;5108279;28;20208;-53
2022/06/20 12:29:25;;;;;;;6.82;3.03;;;17.90;99.90;;;;;;5108310;28;20273;-53
2022/06/20 12:31:56;;;;;;;6.50;2.75;;;17.90;99.90;;;;;;5099870;28;20283;-53
2022/06/20 12:34:41;;;;;;;6.53;2.95;;;18.00;99.90;;;;;;5104181;28;20207;-53
2022/06/20 12:37:18;;;;;;;5.40;2.75;;;18.20;99.90;;;;;;5108658;28;20664;-53
2022/06/20 12:39:52;;;;;;;10.23;2.83;;;18.20;99.90;;;;;;5108853;28;20199;-52
2022/06/20 12:42:28;;;;;;;5.88;2.97;;;18.20;99.90;;;;;;5107238;28;20269;-53
2022/06/20 12:45:19;;;;;;;6.70;3.60;;;18.40;99.90;;;;;;5106475;28;20231;-53
2022/06/20 12:48:15;;;;;;;6.88;3.15;;;18.40;99.90;;;;;;5098720;28;20717;-53
2022/06/20 12:50:49;;;;;;;7.60;3.53;;;18.50;99.90;;;;;;5108398;28;20242;-53
2022/06/20 12:53:33;;;;;;;6.43;3.20;;;18.40;99.90;;;;;;5107974;28;20624;-54
2022/06/20 12:56:13;;;;;;;7.22;3.33;;;18.30;99.90;;;;;;5084147;28;20242;-53
2022/06/20 12:59:14;;;;;;;6.20;3.13;;;18.30;99.90;;;;;;5108742;28;20715;-53
2022/06/20 13:01:48;;;;;;;4.53;3.33;;;18.20;99.90;;;;;;5098374;28;20259;-50
2022/06/20 13:04:55;;;;;;;6.68;3.50;;;18.10;99.90;;;;;;5112131;28;20207;-51
2022/06/20 13:07:53;;;;;;;6.97;4.25;;;18.10;99.90;;;;;;5056320;28;20272;-50
2022/06/20 13:10:31;;;;;;;6.10;3.72;;;18.20;99.90;;;;;;5102708;28;20210;-53
2022/06/20 13:13:28;;;;;;;9.32;3.85;;;18.30;99.90;;;;;;5086925;28;20746;-53
2022/06/20 13:16:09;;;;;;;7.50;3.60;;;18.50;99.90;;;;;;5111099;28;20208;-53
2022/06/20 13:19:03;;;;;;;6.00;3.42;;;18.60;99.90;;;;;;5104357;28;20313;-52
2022/06/20 13:21:40;;;;;;;7.50;3.80;;;18.60;99.90;;;;;;5089360;28;20763;-52
2022/06/20 13:24:35;;;;;;;8.88;3.85;;;18.50;99.90;;;;;;5108945;28;20752;-52
2022/06/20 13:27:17;;;;;;;8.90;3.72;;;18.60;99.90;;;;;;5109603;28;20265;-53
2022/06/20 13:29:53;;;;;;;6.55;4.00;;;18.90;99.90;;;;;;5113349;28;20227;-53
2022/06/20 13:32:31;;;;;;;6.82;3.13;;;19.10;99.90;;;;;;5111389;28;20199;-54
2022/06/20 13:35:05;;;;;;;6.95;4.00;;;19.20;99.90;;;;;;5098741;28;20208;-53
2022/06/20 13:37:48;;;;;;;8.75;4.40;;;19.30;99.90;;;;;;5112035;28;20256;-53
2022/06/20 13:40:43;;;;;;;10.05;4.65;;;19.40;99.90;;;;;;5113430;28;20223;-54
2022/06/20 13:43:20;;;;;;;10.90;4.22;;;19.30;99.90;;;;;;5107265;28;20246;-53
2022/06/20 13:45:54;;;;;;;7.22;3.40;;;19.40;99.90;;;;;;5111471;28;20208;-53
2022/06/20 13:48:29;;;;;;;6.28;3.63;;;19.50;99.90;;;;;;5098724;28;20814;-53
2022/06/20 13:51:06;;;;;;;9.43;3.60;;;19.70;99.90;;;;;;5111521;28;20550;-53
2022/06/20 13:53:42;;;;;;;9.60;3.50;;;19.80;99.90;;;;;;5110825;28;20228;-53